sensor_id;sensor_type;location;lat;lon;timestamp;P1;durP1;ratioP1;P2;durP2;ratioP2
64075;SDS011;50327;51.328;12.324;2023-01-08T00:00:45;11.88;;;5.57;;
64075;SDS011;50327;51.328;12.324;2023-01-08T00:03:11;8.05;;;4.72;;
64075;SDS011;50327;51.328;12.324;2023-01-08T00:05:37;9.60;;;5.50;;
64075;SDS011;50327;51.328;12.324;2023-01-08T00:08:03;11.18;;;5.95;;
64075;SDS011;50327;51.328;12.324;2023-01-08T00:10:29;12.23;;;6.38;;
64075;SDS011;50327;51.328;12.324;2023-01-08T00:12:54;11.13;;;6.07;;
64075;SDS011;50327;51.328;12.324;2023-01-08T00:15:20;11.20;;;6.10;;
64075;SDS011;50327;51.328;12.324;2023-01-08T00:17:46;13.60;;;6.97;;
64075;SDS011;50327;51.328;12.324;2023-01-08T00:20:11;10.80;;;6.07;;
64075;SDS011;50327;51.328;12.324;2023-01-08T00:22:37;11.35;;;6.40;;
64075;SDS011;50327;51.328;12.324;2023-01-08T00:25:03;12.75;;;6.35;;
64075;SDS011;50327;51.328;12.324;2023-01-08T00:27:28;13.35;;;7.53;;
64075;SDS011;50327;51.328;12.324;2023-01-08T00:29:54;13.35;;;6.68;;
64075;SDS011;50327;51.328;12.324;2023-01-08T00:32:19;11.15;;;6.32;;
64075;SDS011;50327;51.328;12.324;2023-01-08T00:34:45;13.15;;;6.32;;
64075;SDS011;50327;51.328;12.324;2023-01-08T00:37:10;11.05;;;6.32;;
64075;SDS011;50327;51.328;12.324;2023-01-08T00:39:36;12.20;;;6.55;;
64075;SDS011;50327;51.328;12.324;2023-01-08T00:42:01;10.93;;;6.10;;
64075;SDS011;50327;51.328;12.324;2023-01-08T00:44:27;10.02;;;5.50;;
64075;SDS011;50327;51.328;12.324;2023-01-08T00:46:52;9.55;;;5.22;;
64075;SDS011;50327;51.328;12.324;2023-01-08T00:49:17;8.05;;;5.25;;
64075;SDS011;50327;51.328;12.324;2023-01-08T00:51:43;8.80;;;5.25;;
64075;SDS011;50327;51.328;12.324;2023-01-08T00:54:09;8.88;;;5.15;;
64075;SDS011;50327;51.328;12.324;2023-01-08T00:56:35;9.23;;;5.78;;
64075;SDS011;50327;51.328;12.324;2023-01-08T00:59:01;8.82;;;5.38;;
64075;SDS011;50327;51.328;12.324;2023-01-08T01:01:26;9.00;;;5.00;;
64075;SDS011;50327;51.328;12.324;2023-01-08T01:03:51;12.05;;;6.05;;
64075;SDS011;50327;51.328;12.324;2023-01-08T01:06:17;11.75;;;5.75;;
64075;SDS011;50327;51.328;12.324;2023-01-08T01:08:43;10.38;;;6.07;;
64075;SDS011;50327;51.328;12.324;2023-01-08T01:11:09;10.70;;;5.80;;
64075;SDS011;50327;51.328;12.324;2023-01-08T01:13:41;9.05;;;5.40;;
64075;SDS011;50327;51.328;12.324;2023-01-08T01:16:07;11.77;;;5.88;;
64075;SDS011;50327;51.328;12.324;2023-01-08T01:18:32;10.40;;;5.70;;
64075;SDS011;50327;51.328;12.324;2023-01-08T01:20:58;8.30;;;5.10;;
64075;SDS011;50327;51.328;12.324;2023-01-08T01:23:23;10.18;;;5.40;;
64075;SDS011;50327;51.328;12.324;2023-01-08T01:25:49;9.07;;;4.85;;
64075;SDS011;50327;51.328;12.324;2023-01-08T01:28:15;11.52;;;5.50;;
64075;SDS011;50327;51.328;12.324;2023-01-08T01:30:41;10.60;;;5.53;;
64075;SDS011;50327;51.328;12.324;2023-01-08T01:33:06;13.07;;;6.03;;
64075;SDS011;50327;51.328;12.324;2023-01-08T01:35:32;10.23;;;5.45;;
64075;SDS011;50327;51.328;12.324;2023-01-08T01:37:57;9.88;;;5.65;;
64075;SDS011;50327;51.328;12.324;2023-01-08T01:40:22;9.35;;;5.63;;
64075;SDS011;50327;51.328;12.324;2023-01-08T01:42:47;16.02;;;5.25;;
64075;SDS011;50327;51.328;12.324;2023-01-08T01:47:46;9.40;;;5.18;;
64075;SDS011;50327;51.328;12.324;2023-01-08T01:50:28;9.80;;;5.15;;
64075;SDS011;50327;51.328;12.324;2023-01-08T01:53:00;9.52;;;4.70;;
64075;SDS011;50327;51.328;12.324;2023-01-08T01:55:27;12.05;;;5.15;;
64075;SDS011;50327;51.328;12.324;2023-01-08T01:58:05;9.15;;;5.30;;
64075;SDS011;50327;51.328;12.324;2023-01-08T02:00:35;8.05;;;4.60;;
64075;SDS011;50327;51.328;12.324;2023-01-08T02:03:01;9.15;;;4.57;;
64075;SDS011;50327;51.328;12.324;2023-01-08T02:05:30;10.38;;;5.07;;
64075;SDS011;50327;51.328;12.324;2023-01-08T02:08:07;10.48;;;5.03;;
64075;SDS011;50327;51.328;12.324;2023-01-08T02:13:35;9.52;;;4.45;;
64075;SDS011;50327;51.328;12.324;2023-01-08T02:16:13;8.55;;;4.50;;
64075;SDS011;50327;51.328;12.324;2023-01-08T02:27:19;7.82;;;4.13;;
64075;SDS011;50327;51.328;12.324;2023-01-08T02:32:15;10.90;;;4.60;;
64075;SDS011;50327;51.328;12.324;2023-01-08T02:34:41;8.13;;;3.85;;
64075;SDS011;50327;51.328;12.324;2023-01-08T02:37:07;8.70;;;4.38;;
64075;SDS011;50327;51.328;12.324;2023-01-08T02:42:50;10.57;;;5.20;;
64075;SDS011;50327;51.328;12.324;2023-01-08T02:45:38;8.57;;;4.10;;
64075;SDS011;50327;51.328;12.324;2023-01-08T02:48:12;11.95;;;4.25;;
64075;SDS011;50327;51.328;12.324;2023-01-08T02:50:45;8.13;;;4.47;;
64075;SDS011;50327;51.328;12.324;2023-01-08T02:55:50;9.13;;;4.57;;
64075;SDS011;50327;51.328;12.324;2023-01-08T02:58:21;9.68;;;3.60;;
64075;SDS011;50327;51.328;12.324;2023-01-08T03:00:49;6.15;;;3.63;;
64075;SDS011;50327;51.328;12.324;2023-01-08T03:03:17;6.97;;;3.58;;
64075;SDS011;50327;51.328;12.324;2023-01-08T03:05:50;8.50;;;3.78;;
64075;SDS011;50327;51.328;12.324;2023-01-08T03:08:18;7.40;;;3.97;;
64075;SDS011;50327;51.328;12.324;2023-01-08T03:10:47;7.43;;;3.75;;
64075;SDS011;50327;51.328;12.324;2023-01-08T03:13:26;7.40;;;3.80;;
64075;SDS011;50327;51.328;12.324;2023-01-08T03:16:02;7.65;;;3.08;;
64075;SDS011;50327;51.328;12.324;2023-01-08T03:18:35;7.53;;;3.35;;
64075;SDS011;50327;51.328;12.324;2023-01-08T03:21:05;6.72;;;3.40;;
64075;SDS011;50327;51.328;12.324;2023-01-08T03:23:32;7.93;;;3.63;;
64075;SDS011;50327;51.328;12.324;2023-01-08T03:26:01;6.15;;;3.47;;
64075;SDS011;50327;51.328;12.324;2023-01-08T03:28:29;6.47;;;3.05;;
64075;SDS011;50327;51.328;12.324;2023-01-08T03:31:06;6.43;;;3.17;;
64075;SDS011;50327;51.328;12.324;2023-01-08T03:33:33;6.30;;;3.15;;
64075;SDS011;50327;51.328;12.324;2023-01-08T03:36:00;10.30;;;3.00;;
64075;SDS011;50327;51.328;12.324;2023-01-08T03:38:32;6.32;;;3.45;;
64075;SDS011;50327;51.328;12.324;2023-01-08T03:41:08;6.40;;;3.17;;
64075;SDS011;50327;51.328;12.324;2023-01-08T03:43:37;7.95;;;3.58;;
64075;SDS011;50327;51.328;12.324;2023-01-08T03:46:05;9.43;;;3.30;;
64075;SDS011;50327;51.328;12.324;2023-01-08T03:48:34;6.43;;;3.53;;
64075;SDS011;50327;51.328;12.324;2023-01-08T03:51:02;6.57;;;3.25;;
64075;SDS011;50327;51.328;12.324;2023-01-08T03:53:31;5.95;;;2.97;;
64075;SDS011;50327;51.328;12.324;2023-01-08T03:55:57;5.30;;;2.90;;
64075;SDS011;50327;51.328;12.324;2023-01-08T03:58:22;6.43;;;2.92;;
64075;SDS011;50327;51.328;12.324;2023-01-08T04:00:47;7.22;;;2.90;;
64075;SDS011;50327;51.328;12.324;2023-01-08T04:03:13;6.78;;;3.30;;
64075;SDS011;50327;51.328;12.324;2023-01-08T04:05:38;6.95;;;2.80;;
64075;SDS011;50327;51.328;12.324;2023-01-08T04:08:04;8.18;;;3.60;;
64075;SDS011;50327;51.328;12.324;2023-01-08T04:10:29;7.97;;;3.30;;
64075;SDS011;50327;51.328;12.324;2023-01-08T04:12:54;6.53;;;3.10;;
64075;SDS011;50327;51.328;12.324;2023-01-08T04:15:20;7.40;;;3.45;;
64075;SDS011;50327;51.328;12.324;2023-01-08T04:17:45;7.22;;;3.15;;
64075;SDS011;50327;51.328;12.324;2023-01-08T04:20:10;7.72;;;3.22;;
64075;SDS011;50327;51.328;12.324;2023-01-08T04:22:36;6.10;;;3.30;;
64075;SDS011;50327;51.328;12.324;2023-01-08T04:25:01;6.03;;;3.15;;
64075;SDS011;50327;51.328;12.324;2023-01-08T04:27:27;6.10;;;3.33;;
64075;SDS011;50327;51.328;12.324;2023-01-08T04:29:52;5.80;;;2.90;;
64075;SDS011;50327;51.328;12.324;2023-01-08T04:32:18;7.05;;;3.25;;
64075;SDS011;50327;51.328;12.324;2023-01-08T04:34:44;7.80;;;3.35;;
64075;SDS011;50327;51.328;12.324;2023-01-08T04:37:09;7.32;;;3.30;;
64075;SDS011;50327;51.328;12.324;2023-01-08T04:39:34;10.52;;;3.72;;
64075;SDS011;50327;51.328;12.324;2023-01-08T04:42:00;6.28;;;3.20;;
64075;SDS011;50327;51.328;12.324;2023-01-08T04:44:25;11.38;;;3.83;;
64075;SDS011;50327;51.328;12.324;2023-01-08T04:46:50;5.70;;;3.22;;
64075;SDS011;50327;51.328;12.324;2023-01-08T04:49:16;8.65;;;3.10;;
64075;SDS011;50327;51.328;12.324;2023-01-08T04:51:41;6.82;;;3.35;;
64075;SDS011;50327;51.328;12.324;2023-01-08T04:54:07;6.25;;;3.20;;
64075;SDS011;50327;51.328;12.324;2023-01-08T04:56:32;6.57;;;2.60;;
64075;SDS011;50327;51.328;12.324;2023-01-08T04:58:58;8.43;;;3.72;;
64075;SDS011;50327;51.328;12.324;2023-01-08T05:01:24;7.43;;;3.13;;
64075;SDS011;50327;51.328;12.324;2023-01-08T05:03:54;6.15;;;3.00;;
64075;SDS011;50327;51.328;12.324;2023-01-08T05:06:21;6.65;;;3.35;;
64075;SDS011;50327;51.328;12.324;2023-01-08T05:08:47;5.57;;;2.83;;
64075;SDS011;50327;51.328;12.324;2023-01-08T05:11:12;5.85;;;3.22;;
64075;SDS011;50327;51.328;12.324;2023-01-08T05:13:37;5.72;;;2.97;;
64075;SDS011;50327;51.328;12.324;2023-01-08T05:16:03;6.03;;;3.10;;
64075;SDS011;50327;51.328;12.324;2023-01-08T05:18:28;6.00;;;2.67;;
64075;SDS011;50327;51.328;12.324;2023-01-08T05:20:54;6.10;;;2.92;;
64075;SDS011;50327;51.328;12.324;2023-01-08T05:23:24;9.93;;;3.03;;
64075;SDS011;50327;51.328;12.324;2023-01-08T05:25:49;6.55;;;2.55;;
64075;SDS011;50327;51.328;12.324;2023-01-08T05:28:15;6.63;;;2.88;;
64075;SDS011;50327;51.328;12.324;2023-01-08T05:30:40;7.28;;;2.72;;
64075;SDS011;50327;51.328;12.324;2023-01-08T05:33:05;5.95;;;2.88;;
64075;SDS011;50327;51.328;12.324;2023-01-08T05:35:31;4.78;;;2.40;;
64075;SDS011;50327;51.328;12.324;2023-01-08T05:37:58;6.93;;;2.78;;
64075;SDS011;50327;51.328;12.324;2023-01-08T05:40:23;4.93;;;2.58;;
64075;SDS011;50327;51.328;12.324;2023-01-08T05:42:49;5.70;;;2.45;;
64075;SDS011;50327;51.328;12.324;2023-01-08T05:45:14;4.78;;;2.58;;
64075;SDS011;50327;51.328;12.324;2023-01-08T05:47:40;5.65;;;2.92;;
64075;SDS011;50327;51.328;12.324;2023-01-08T05:50:06;7.70;;;2.97;;
64075;SDS011;50327;51.328;12.324;2023-01-08T05:52:31;5.47;;;2.70;;
64075;SDS011;50327;51.328;12.324;2023-01-08T05:54:56;7.65;;;3.70;;
64075;SDS011;50327;51.328;12.324;2023-01-08T05:57:24;7.70;;;3.20;;
64075;SDS011;50327;51.328;12.324;2023-01-08T05:59:49;5.68;;;2.83;;
64075;SDS011;50327;51.328;12.324;2023-01-08T06:02:15;5.85;;;3.05;;
64075;SDS011;50327;51.328;12.324;2023-01-08T06:04:40;10.48;;;3.15;;
64075;SDS011;50327;51.328;12.324;2023-01-08T06:07:05;6.05;;;3.13;;
64075;SDS011;50327;51.328;12.324;2023-01-08T06:09:31;7.68;;;2.90;;
64075;SDS011;50327;51.328;12.324;2023-01-08T06:11:56;7.57;;;2.97;;
64075;SDS011;50327;51.328;12.324;2023-01-08T06:14:22;5.90;;;2.97;;
64075;SDS011;50327;51.328;12.324;2023-01-08T06:16:47;7.28;;;3.72;;
64075;SDS011;50327;51.328;12.324;2023-01-08T06:19:13;6.28;;;3.58;;
64075;SDS011;50327;51.328;12.324;2023-01-08T06:21:38;10.35;;;3.58;;
64075;SDS011;50327;51.328;12.324;2023-01-08T06:24:04;8.30;;;3.38;;
64075;SDS011;50327;51.328;12.324;2023-01-08T06:26:29;6.35;;;3.25;;
64075;SDS011;50327;51.328;12.324;2023-01-08T06:28:55;7.47;;;3.10;;
64075;SDS011;50327;51.328;12.324;2023-01-08T06:31:20;8.13;;;3.42;;
64075;SDS011;50327;51.328;12.324;2023-01-08T06:33:45;7.05;;;2.95;;
64075;SDS011;50327;51.328;12.324;2023-01-08T06:36:11;14.10;;;4.05;;
64075;SDS011;50327;51.328;12.324;2023-01-08T06:38:36;5.82;;;3.08;;
64075;SDS011;50327;51.328;12.324;2023-01-08T06:41:05;6.15;;;2.85;;
64075;SDS011;50327;51.328;12.324;2023-01-08T06:43:33;6.70;;;3.15;;
64075;SDS011;50327;51.328;12.324;2023-01-08T06:45:59;5.53;;;2.72;;
64075;SDS011;50327;51.328;12.324;2023-01-08T06:48:25;6.40;;;3.17;;
64075;SDS011;50327;51.328;12.324;2023-01-08T06:50:51;6.78;;;3.30;;
64075;SDS011;50327;51.328;12.324;2023-01-08T06:53:16;6.43;;;3.38;;
64075;SDS011;50327;51.328;12.324;2023-01-08T06:55:42;8.57;;;3.30;;
64075;SDS011;50327;51.328;12.324;2023-01-08T06:58:08;9.55;;;3.58;;
64075;SDS011;50327;51.328;12.324;2023-01-08T07:00:34;4.82;;;2.80;;
64075;SDS011;50327;51.328;12.324;2023-01-08T07:02:59;8.32;;;3.63;;
64075;SDS011;50327;51.328;12.324;2023-01-08T07:05:25;6.93;;;3.22;;
64075;SDS011;50327;51.328;12.324;2023-01-08T07:07:50;7.00;;;3.80;;
64075;SDS011;50327;51.328;12.324;2023-01-08T07:10:15;11.98;;;3.55;;
64075;SDS011;50327;51.328;12.324;2023-01-08T07:12:41;7.95;;;3.70;;
64075;SDS011;50327;51.328;12.324;2023-01-08T07:15:07;7.25;;;3.50;;
64075;SDS011;50327;51.328;12.324;2023-01-08T07:17:32;6.82;;;3.42;;
64075;SDS011;50327;51.328;12.324;2023-01-08T07:19:58;7.18;;;3.72;;
64075;SDS011;50327;51.328;12.324;2023-01-08T07:22:23;7.40;;;3.58;;
64075;SDS011;50327;51.328;12.324;2023-01-08T07:24:50;28.30;;;3.92;;
64075;SDS011;50327;51.328;12.324;2023-01-08T07:27:16;7.40;;;3.75;;
64075;SDS011;50327;51.328;12.324;2023-01-08T07:29:41;10.20;;;3.90;;
64075;SDS011;50327;51.328;12.324;2023-01-08T07:32:06;9.88;;;3.33;;
64075;SDS011;50327;51.328;12.324;2023-01-08T07:34:32;6.30;;;3.38;;
64075;SDS011;50327;51.328;12.324;2023-01-08T07:36:58;6.43;;;3.60;;
64075;SDS011;50327;51.328;12.324;2023-01-08T07:39:24;8.40;;;4.50;;
64075;SDS011;50327;51.328;12.324;2023-01-08T07:41:49;7.45;;;3.90;;
64075;SDS011;50327;51.328;12.324;2023-01-08T07:44:15;11.00;;;3.70;;
64075;SDS011;50327;51.328;12.324;2023-01-08T07:46:40;6.75;;;3.63;;
64075;SDS011;50327;51.328;12.324;2023-01-08T07:49:05;6.70;;;3.35;;
64075;SDS011;50327;51.328;12.324;2023-01-08T07:51:31;8.18;;;3.30;;
64075;SDS011;50327;51.328;12.324;2023-01-08T07:53:56;7.25;;;3.58;;
64075;SDS011;50327;51.328;12.324;2023-01-08T07:56:22;9.23;;;3.63;;
64075;SDS011;50327;51.328;12.324;2023-01-08T07:58:48;7.85;;;3.85;;
64075;SDS011;50327;51.328;12.324;2023-01-08T08:01:13;9.57;;;3.85;;
64075;SDS011;50327;51.328;12.324;2023-01-08T08:03:39;6.65;;;3.15;;
64075;SDS011;50327;51.328;12.324;2023-01-08T08:06:04;7.20;;;3.97;;
64075;SDS011;50327;51.328;12.324;2023-01-08T08:08:30;8.82;;;4.90;;
64075;SDS011;50327;51.328;12.324;2023-01-08T08:10:55;6.30;;;3.67;;
64075;SDS011;50327;51.328;12.324;2023-01-08T08:13:21;7.85;;;3.63;;
64075;SDS011;50327;51.328;12.324;2023-01-08T08:15:46;7.60;;;3.63;;
64075;SDS011;50327;51.328;12.324;2023-01-08T08:18:12;7.35;;;3.50;;
64075;SDS011;50327;51.328;12.324;2023-01-08T08:20:37;8.40;;;3.75;;
64075;SDS011;50327;51.328;12.324;2023-01-08T08:23:04;6.57;;;3.22;;
64075;SDS011;50327;51.328;12.324;2023-01-08T08:25:35;5.38;;;3.03;;
64075;SDS011;50327;51.328;12.324;2023-01-08T08:28:01;7.13;;;3.45;;
64075;SDS011;50327;51.328;12.324;2023-01-08T08:30:28;6.72;;;3.55;;
64075;SDS011;50327;51.328;12.324;2023-01-08T08:32:56;8.50;;;3.63;;
64075;SDS011;50327;51.328;12.324;2023-01-08T08:35:24;6.55;;;3.42;;
64075;SDS011;50327;51.328;12.324;2023-01-08T08:37:50;10.23;;;3.20;;
64075;SDS011;50327;51.328;12.324;2023-01-08T08:40:15;9.02;;;3.53;;
64075;SDS011;50327;51.328;12.324;2023-01-08T08:42:41;7.47;;;3.65;;
64075;SDS011;50327;51.328;12.324;2023-01-08T08:45:06;7.47;;;4.15;;
64075;SDS011;50327;51.328;12.324;2023-01-08T08:47:32;7.00;;;4.10;;
64075;SDS011;50327;51.328;12.324;2023-01-08T08:49:57;8.32;;;4.15;;
64075;SDS011;50327;51.328;12.324;2023-01-08T08:52:22;11.25;;;4.50;;
64075;SDS011;50327;51.328;12.324;2023-01-08T08:54:48;12.35;;;5.65;;
64075;SDS011;50327;51.328;12.324;2023-01-08T08:57:13;11.00;;;4.07;;
64075;SDS011;50327;51.328;12.324;2023-01-08T08:59:38;9.95;;;4.03;;
64075;SDS011;50327;51.328;12.324;2023-01-08T09:02:04;8.57;;;3.67;;
64075;SDS011;50327;51.328;12.324;2023-01-08T09:04:31;8.65;;;3.88;;
64075;SDS011;50327;51.328;12.324;2023-01-08T09:06:57;8.32;;;4.40;;
64075;SDS011;50327;51.328;12.324;2023-01-08T09:09:23;9.18;;;4.35;;
64075;SDS011;50327;51.328;12.324;2023-01-08T09:11:48;10.18;;;4.40;;
64075;SDS011;50327;51.328;12.324;2023-01-08T09:14:14;8.43;;;4.28;;
64075;SDS011;50327;51.328;12.324;2023-01-08T09:16:39;10.18;;;4.32;;
64075;SDS011;50327;51.328;12.324;2023-01-08T09:19:05;13.50;;;6.03;;
64075;SDS011;50327;51.328;12.324;2023-01-08T09:21:31;8.63;;;4.57;;
64075;SDS011;50327;51.328;12.324;2023-01-08T09:23:56;9.80;;;4.97;;
64075;SDS011;50327;51.328;12.324;2023-01-08T09:26:22;9.32;;;5.32;;
64075;SDS011;50327;51.328;12.324;2023-01-08T09:28:47;8.45;;;4.13;;
64075;SDS011;50327;51.328;12.324;2023-01-08T09:31:13;10.55;;;4.45;;
64075;SDS011;50327;51.328;12.324;2023-01-08T09:33:38;11.05;;;5.20;;
64075;SDS011;50327;51.328;12.324;2023-01-08T09:36:04;10.25;;;5.22;;
64075;SDS011;50327;51.328;12.324;2023-01-08T09:38:32;9.05;;;5.03;;
64075;SDS011;50327;51.328;12.324;2023-01-08T09:41:02;19.58;;;8.00;;
64075;SDS011;50327;51.328;12.324;2023-01-08T09:43:32;16.77;;;7.38;;
64075;SDS011;50327;51.328;12.324;2023-01-08T09:46:02;31.08;;;9.88;;
64075;SDS011;50327;51.328;12.324;2023-01-08T09:48:30;27.58;;;9.35;;
64075;SDS011;50327;51.328;12.324;2023-01-08T09:50:59;26.98;;;9.25;;
64075;SDS011;50327;51.328;12.324;2023-01-08T09:53:25;27.58;;;9.68;;
64075;SDS011;50327;51.328;12.324;2023-01-08T09:55:54;26.52;;;9.45;;
64075;SDS011;50327;51.328;12.324;2023-01-08T10:00:58;19.30;;;8.57;;
64075;SDS011;50327;51.328;12.324;2023-01-08T10:03:26;26.77;;;9.20;;
64075;SDS011;50327;51.328;12.324;2023-01-08T10:05:55;14.75;;;5.82;;
64075;SDS011;50327;51.328;12.324;2023-01-08T10:08:21;17.98;;;7.45;;
64075;SDS011;50327;51.328;12.324;2023-01-08T10:10:46;18.85;;;7.75;;
64075;SDS011;50327;51.328;12.324;2023-01-08T10:13:11;18.15;;;7.63;;
64075;SDS011;50327;51.328;12.324;2023-01-08T10:15:38;13.15;;;6.15;;
64075;SDS011;50327;51.328;12.324;2023-01-08T10:18:11;10.95;;;5.38;;
64075;SDS011;50327;51.328;12.324;2023-01-08T10:20:38;8.85;;;4.72;;
64075;SDS011;50327;51.328;12.324;2023-01-08T10:23:07;8.82;;;4.57;;
64075;SDS011;50327;51.328;12.324;2023-01-08T10:25:45;9.52;;;5.15;;
64075;SDS011;50327;51.328;12.324;2023-01-08T10:28:21;8.85;;;4.32;;
64075;SDS011;50327;51.328;12.324;2023-01-08T10:30:51;13.05;;;4.78;;
64075;SDS011;50327;51.328;12.324;2023-01-08T10:33:36;9.20;;;4.13;;
64075;SDS011;50327;51.328;12.324;2023-01-08T10:36:05;10.02;;;4.10;;
64075;SDS011;50327;51.328;12.324;2023-01-08T10:38:47;9.88;;;5.03;;
64075;SDS011;50327;51.328;12.324;2023-01-08T10:41:13;8.07;;;3.55;;
64075;SDS011;50327;51.328;12.324;2023-01-08T10:43:41;9.65;;;4.15;;
64075;SDS011;50327;51.328;12.324;2023-01-08T10:49:01;6.47;;;3.78;;
64075;SDS011;50327;51.328;12.324;2023-01-08T10:51:30;9.38;;;4.88;;
64075;SDS011;50327;51.328;12.324;2023-01-08T10:54:22;10.20;;;4.45;;
64075;SDS011;50327;51.328;12.324;2023-01-08T10:56:50;9.38;;;4.53;;
64075;SDS011;50327;51.328;12.324;2023-01-08T10:59:19;10.50;;;4.97;;
64075;SDS011;50327;51.328;12.324;2023-01-08T11:01:47;14.05;;;5.13;;
64075;SDS011;50327;51.328;12.324;2023-01-08T11:04:19;8.90;;;4.40;;
64075;SDS011;50327;51.328;12.324;2023-01-08T11:06:48;7.70;;;4.00;;
64075;SDS011;50327;51.328;12.324;2023-01-08T11:09:23;8.88;;;4.45;;
64075;SDS011;50327;51.328;12.324;2023-01-08T11:11:52;7.40;;;4.00;;
64075;SDS011;50327;51.328;12.324;2023-01-08T11:14:23;10.40;;;4.85;;
64075;SDS011;50327;51.328;12.324;2023-01-08T11:16:52;8.45;;;4.15;;
64075;SDS011;50327;51.328;12.324;2023-01-08T11:19:21;8.70;;;4.53;;
64075;SDS011;50327;51.328;12.324;2023-01-08T11:21:55;11.48;;;5.15;;
64075;SDS011;50327;51.328;12.324;2023-01-08T11:24:29;8.15;;;4.30;;
64075;SDS011;50327;51.328;12.324;2023-01-08T11:26:59;10.45;;;5.07;;
64075;SDS011;50327;51.328;12.324;2023-01-08T11:34:33;8.52;;;4.63;;
64075;SDS011;50327;51.328;12.324;2023-01-08T11:37:18;9.25;;;4.85;;
64075;SDS011;50327;51.328;12.324;2023-01-08T11:39:45;8.75;;;5.15;;
64075;SDS011;50327;51.328;12.324;2023-01-08T11:44:52;7.78;;;4.53;;
64075;SDS011;50327;51.328;12.324;2023-01-08T11:47:27;7.88;;;4.63;;
64075;SDS011;50327;51.328;12.324;2023-01-08T11:58:09;15.52;;;6.78;;
64075;SDS011;50327;51.328;12.324;2023-01-08T12:06:31;28.05;;;13.30;;
64075;SDS011;50327;51.328;12.324;2023-01-08T12:09:23;24.88;;;10.52;;
64075;SDS011;50327;51.328;12.324;2023-01-08T12:12:14;17.83;;;9.05;;
64075;SDS011;50327;51.328;12.324;2023-01-08T12:15:19;14.40;;;7.85;;
64075;SDS011;50327;51.328;12.324;2023-01-08T12:20:38;10.27;;;5.45;;
64075;SDS011;50327;51.328;12.324;2023-01-08T12:34:04;9.40;;;5.35;;
64075;SDS011;50327;51.328;12.324;2023-01-08T12:36:53;10.93;;;5.47;;
64075;SDS011;50327;51.328;12.324;2023-01-08T12:39:27;16.90;;;7.38;;
64075;SDS011;50327;51.328;12.324;2023-01-08T12:42:00;14.07;;;6.97;;
64075;SDS011;50327;51.328;12.324;2023-01-08T12:44:35;16.10;;;7.43;;
64075;SDS011;50327;51.328;12.324;2023-01-08T12:47:01;9.80;;;5.70;;
64075;SDS011;50327;51.328;12.324;2023-01-08T12:49:41;10.90;;;5.00;;
64075;SDS011;50327;51.328;12.324;2023-01-08T12:52:17;11.52;;;6.20;;
64075;SDS011;50327;51.328;12.324;2023-01-08T12:54:51;12.43;;;6.70;;
64075;SDS011;50327;51.328;12.324;2023-01-08T12:57:33;14.07;;;5.07;;
64075;SDS011;50327;51.328;12.324;2023-01-08T13:07:48;12.70;;;6.65;;
64075;SDS011;50327;51.328;12.324;2023-01-08T13:10:33;11.13;;;5.55;;
64075;SDS011;50327;51.328;12.324;2023-01-08T13:12:59;10.77;;;6.05;;
64075;SDS011;50327;51.328;12.324;2023-01-08T13:15:26;10.40;;;5.60;;
64075;SDS011;50327;51.328;12.324;2023-01-08T13:17:57;10.65;;;5.15;;
64075;SDS011;50327;51.328;12.324;2023-01-08T13:20:30;10.73;;;4.85;;
64075;SDS011;50327;51.328;12.324;2023-01-08T13:22:57;8.93;;;4.13;;
64075;SDS011;50327;51.328;12.324;2023-01-08T13:27:52;6.90;;;3.67;;
64075;SDS011;50327;51.328;12.324;2023-01-08T13:38:36;11.05;;;5.18;;
64075;SDS011;50327;51.328;12.324;2023-01-08T13:41:02;8.93;;;4.38;;
64075;SDS011;50327;51.328;12.324;2023-01-08T13:48:34;8.27;;;3.60;;
64075;SDS011;50327;51.328;12.324;2023-01-08T13:51:01;6.40;;;3.17;;
64075;SDS011;50327;51.328;12.324;2023-01-08T13:53:26;9.30;;;3.72;;
64075;SDS011;50327;51.328;12.324;2023-01-08T13:56:05;5.97;;;3.17;;
64075;SDS011;50327;51.328;12.324;2023-01-08T13:58:33;7.00;;;3.35;;
64075;SDS011;50327;51.328;12.324;2023-01-08T14:01:00;6.55;;;2.35;;
64075;SDS011;50327;51.328;12.324;2023-01-08T14:03:29;6.10;;;3.20;;
64075;SDS011;50327;51.328;12.324;2023-01-08T14:06:06;8.05;;;3.15;;
64075;SDS011;50327;51.328;12.324;2023-01-08T14:08:32;5.13;;;2.75;;
64075;SDS011;50327;51.328;12.324;2023-01-08T14:10:57;8.25;;;3.53;;
64075;SDS011;50327;51.328;12.324;2023-01-08T14:13:26;5.15;;;2.67;;
64075;SDS011;50327;51.328;12.324;2023-01-08T14:15:55;6.05;;;2.85;;
64075;SDS011;50327;51.328;12.324;2023-01-08T14:18:29;6.78;;;2.80;;
64075;SDS011;50327;51.328;12.324;2023-01-08T14:20:56;5.88;;;2.17;;
64075;SDS011;50327;51.328;12.324;2023-01-08T14:23:29;5.07;;;2.47;;
64075;SDS011;50327;51.328;12.324;2023-01-08T14:25:58;5.38;;;2.20;;
64075;SDS011;50327;51.328;12.324;2023-01-08T14:28:29;5.95;;;2.55;;
64075;SDS011;50327;51.328;12.324;2023-01-08T14:30:54;5.57;;;2.70;;
64075;SDS011;50327;51.328;12.324;2023-01-08T14:33:39;3.88;;;1.88;;
64075;SDS011;50327;51.328;12.324;2023-01-08T14:36:12;7.53;;;2.17;;
64075;SDS011;50327;51.328;12.324;2023-01-08T14:38:37;6.07;;;2.03;;
64075;SDS011;50327;51.328;12.324;2023-01-08T14:41:07;5.22;;;2.30;;
64075;SDS011;50327;51.328;12.324;2023-01-08T14:43:40;4.03;;;1.83;;
64075;SDS011;50327;51.328;12.324;2023-01-08T14:46:14;5.85;;;2.35;;
64075;SDS011;50327;51.328;12.324;2023-01-08T14:48:53;8.95;;;2.60;;
64075;SDS011;50327;51.328;12.324;2023-01-08T14:51:21;8.23;;;3.28;;
64075;SDS011;50327;51.328;12.324;2023-01-08T14:53:50;11.77;;;4.65;;
64075;SDS011;50327;51.328;12.324;2023-01-08T14:56:20;22.95;;;7.38;;
64075;SDS011;50327;51.328;12.324;2023-01-08T14:58:50;17.15;;;5.57;;
64075;SDS011;50327;51.328;12.324;2023-01-08T15:01:17;14.98;;;6.05;;
64075;SDS011;50327;51.328;12.324;2023-01-08T15:03:48;13.90;;;5.78;;
64075;SDS011;50327;51.328;12.324;2023-01-08T15:06:25;18.02;;;7.55;;
64075;SDS011;50327;51.328;12.324;2023-01-08T15:08:52;12.30;;;6.43;;
64075;SDS011;50327;51.328;12.324;2023-01-08T15:13:44;9.45;;;4.63;;
64075;SDS011;50327;51.328;12.324;2023-01-08T15:16:15;12.00;;;4.53;;
64075;SDS011;50327;51.328;12.324;2023-01-08T15:18:49;8.73;;;4.13;;
64075;SDS011;50327;51.328;12.324;2023-01-08T15:21:20;11.30;;;4.95;;
64075;SDS011;50327;51.328;12.324;2023-01-08T15:23:48;11.30;;;4.38;;
64075;SDS011;50327;51.328;12.324;2023-01-08T15:26:18;7.53;;;3.55;;
64075;SDS011;50327;51.328;12.324;2023-01-08T15:28:58;8.32;;;3.40;;
64075;SDS011;50327;51.328;12.324;2023-01-08T15:31:27;8.52;;;3.38;;
64075;SDS011;50327;51.328;12.324;2023-01-08T15:33:57;13.38;;;4.25;;
64075;SDS011;50327;51.328;12.324;2023-01-08T15:36:23;9.40;;;4.38;;
64075;SDS011;50327;51.328;12.324;2023-01-08T15:38:49;12.05;;;6.55;;
64075;SDS011;50327;51.328;12.324;2023-01-08T15:41:17;14.77;;;7.63;;
64075;SDS011;50327;51.328;12.324;2023-01-08T15:44:03;18.92;;;9.43;;
64075;SDS011;50327;51.328;12.324;2023-01-08T15:46:29;16.13;;;7.85;;
64075;SDS011;50327;51.328;12.324;2023-01-08T15:48:54;13.63;;;6.97;;
64075;SDS011;50327;51.328;12.324;2023-01-08T15:51:20;17.27;;;8.35;;
64075;SDS011;50327;51.328;12.324;2023-01-08T15:53:46;16.45;;;6.22;;
64075;SDS011;50327;51.328;12.324;2023-01-08T15:56:11;10.23;;;4.60;;
64075;SDS011;50327;51.328;12.324;2023-01-08T15:58:37;15.40;;;3.83;;
64075;SDS011;50327;51.328;12.324;2023-01-08T16:01:02;8.57;;;3.70;;
64075;SDS011;50327;51.328;12.324;2023-01-08T16:03:28;10.43;;;4.03;;
64075;SDS011;50327;51.328;12.324;2023-01-08T16:05:54;6.57;;;3.80;;